Voskresensk, Russia
Current Conditions -  °F | °C
As of 1:00 AM on Tuesday 23 Dec 2014 (Local Time) from UUWW Reporting Station
Light Snow Light Snow  
Wind Chill: 21°   Ceiling: 1100
Heat Index: 27°   Visibility: 1.6mi
Dew Point: 25°   Wind: 4mph
Humidity: 93%   Direction: 140°SE
Pressure: 29.32"   Gusts: NA
Location:  55.27°N, 36.74°E
Report Text: UUWW 222200Z 14002MPS 2700 -SN OVC011 M03/M04 Q0993 06590140TEMPO 1000 SN
Loading
Personal Weather Stations






























Interactive Weather Map New forecast layout! Learn more

10-Day Weather Forecast

Advertisements
Track Severe Weather on mobile